createdAt,value
2022-11-17T00:00:58.073Z,275.95652173913044
2022-11-17T00:07:25.750Z,280.61204013377926
2022-11-17T00:13:53.603Z,271.46822742474916
2022-11-17T00:20:21.064Z,289.67558528428094
2022-11-17T00:26:58.713Z,308.39799331103677
2022-11-17T00:33:26.005Z,324.16722408026754
2022-11-17T00:43:27.423Z,338.428093645485
2022-11-17T00:49:54.969Z,299.5551839464883
2022-11-17T00:56:22.338Z,296.40802675585286
2022-11-17T01:02:49.419Z,279.54515050167225
2022-11-17T01:09:17.250Z,276.0535117056856
2022-11-17T01:20:06.741Z,258.3545150501672
2022-11-17T01:26:57.849Z,235.08695652173913
2022-11-17T01:33:24.779Z,204.13377926421404
2022-11-17T01:39:51.520Z,199.98996655518394
2022-11-17T01:46:19.294Z,203.91638795986623
2022-11-17T01:52:46.426Z,180.34113712374582
2022-11-17T01:59:14.457Z,160.51839464882943
2022-11-17T02:05:42.032Z,155.10702341137124
2022-11-17T02:13:39.432Z,156.50501672240802
2022-11-17T02:20:07.084Z,160.6789297658863
2022-11-17T02:27:07.400Z,167.60535117056855
2022-11-17T02:33:35.284Z,184.10702341137124
2022-11-17T02:42:14.870Z,190.4715719063545
2022-11-17T02:57:54.573Z,198.44147157190636
2022-11-17T03:04:22.678Z,207.46153846153845
2022-11-17T03:10:50.499Z,208.9732441471572
2022-11-17T03:17:18.929Z,236.73244147157192
2022-11-17T03:23:51.954Z,272.60535117056855
2022-11-17T03:31:47.818Z,273.4882943143813
2022-11-17T03:38:15.320Z,288.47157190635454
2022-11-17T03:47:51.927Z,306.24749163879596
2022-11-17T03:54:19.780Z,311.5117056856187
2022-11-17T04:00:46.539Z,299.2073578595318
2022-11-17T04:07:13.968Z,309.55183946488296
2022-11-17T04:13:41.672Z,319.15384615384613
2022-11-17T04:20:08.926Z,322.8428093645485
2022-11-17T04:26:42.014Z,330.9732441471572
2022-11-17T04:33:08.866Z,337.81939799331104
2022-11-17T04:44:56.934Z,336.3612040133779
2022-11-17T04:52:29.661Z,341.0066889632107
2022-11-17T04:58:59.169Z,355.90635451505017
2022-11-17T05:06:53.288Z,346.7090301003345
2022-11-17T05:13:30.184Z,356.47157190635454
2022-11-17T05:19:57.003Z,372.81605351170566
2022-11-17T05:26:29.037Z,398.18060200668896
2022-11-17T05:33:37.748Z,419.9230769230769
2022-11-17T05:40:05.853Z,430.38127090301003
2022-11-17T05:46:34.491Z,455.123745819398
2022-11-17T05:58:45.186Z,482.3010033444816
2022-11-17T06:11:39.833Z,533.3578595317725
2022-11-17T06:18:08.206Z,533.4314381270902
2022-11-17T06:24:41.329Z,547.5685618729098
2022-11-17T06:31:30.008Z,555.4648829431438
2022-11-17T06:38:55.949Z,585.4782608695652
2022-11-17T06:45:23.542Z,575.1605351170568
2022-11-17T06:51:51.091Z,614.5250836120401
2022-11-17T07:00:16.755Z,598.3779264214047
2022-11-17T07:09:01.902Z,613.752508361204
2022-11-17T07:26:49.857Z,618.7491638795987
2022-11-17T07:35:00.905Z,625.113712374582
2022-11-17T07:41:32.145Z,636.7926421404683
2022-11-17T07:48:00.859Z,631.1204013377926
2022-11-17T07:54:29.161Z,642.8695652173913
2022-11-17T08:00:56.460Z,656.9665551839465
2022-11-17T08:07:24.234Z,628.6020066889632
2022-11-17T08:13:51.152Z,623.9665551839465
2022-11-17T08:31:36.938Z,595.5117056856187
2022-11-17T08:38:05.113Z,557.5150501672241
2022-11-17T08:44:33.162Z,523.6588628762541
2022-11-17T08:51:00.442Z,530.6521739130435
2022-11-17T09:03:22.947Z,565.4882943143813
2022-11-17T09:23:32.759Z,497.9096989966555
2022-11-17T09:30:00.046Z,458.9966555183947
2022-11-17T09:36:26.943Z,474.2073578595318
2022-11-17T09:46:59.410Z,457.7926421404682
2022-11-17T09:53:27.429Z,468.88628762541805
2022-11-17T09:59:54.814Z,439.4782608695652
2022-11-17T10:16:04.288Z,398.9130434782609
2022-11-17T10:22:31.383Z,407.55183946488296
2022-11-17T10:29:08.487Z,397.2040133779264
2022-11-17T10:43:21.607Z,395.0
2022-11-17T10:49:48.750Z,385.53846153846155
2022-11-17T11:06:17.472Z,377.5183946488294
2022-11-17T11:14:08.935Z,361.0869565217391
2022-11-17T11:20:37.308Z,351.25752508361205
2022-11-17T11:27:13.191Z,325.4347826086956
2022-11-17T11:33:41.199Z,315.55852842809367
2022-11-17T11:40:09.032Z,272.9397993311037
2022-11-17T11:46:36.708Z,261.3545150501672
2022-11-17T11:53:04.109Z,266.4983277591973
2022-11-17T11:59:31.071Z,259.943143812709
2022-11-17T12:14:40.629Z,252.62876254180603
2022-11-17T12:23:45.514Z,217.53177257525084
2022-11-17T12:30:12.990Z,214.44816053511707
2022-11-17T12:36:41.164Z,203.76254180602007
2022-11-17T12:43:08.152Z,210.49498327759198
2022-11-17T12:51:41.760Z,199.35117056856188
2022-11-17T13:01:38.764Z,200.6722408026756
2022-11-17T13:08:06.264Z,202.8294314381271
2022-11-17T13:14:33.584Z,211.23411371237458
2022-11-17T13:21:00.084Z,218.9933110367893
2022-11-17T13:27:30.973Z,210.81939799331104
2022-11-17T13:33:58.470Z,223.50167224080266
2022-11-17T13:40:25.104Z,216.26755852842808
2022-11-17T13:46:52.234Z,215.12709030100334
2022-11-17T13:53:19.922Z,212.2809364548495
2022-11-17T14:01:22.928Z,236.70903010033445
2022-11-17T14:09:51.586Z,215.50836120401337
2022-11-17T14:22:30.992Z,215.43478260869566
2022-11-17T14:29:48.959Z,246.7190635451505
2022-11-17T14:36:16.128Z,217.05016722408027
2022-11-17T14:42:43.661Z,191.33110367892976
2022-11-17T14:50:52.295Z,200.04682274247492
2022-11-17T14:57:19.773Z,186.96321070234114
2022-11-17T15:03:47.355Z,185.89297658862876
2022-11-17T15:15:27.284Z,192.88628762541805
2022-11-17T15:21:54.690Z,201.1571906354515
2022-11-17T15:28:30.532Z,224.35785953177256
2022-11-17T15:34:58.072Z,195.76923076923077
2022-11-17T15:41:29.898Z,204.69565217391303
2022-11-17T15:48:01.033Z,191.46153846153845
2022-11-17T15:54:28.395Z,220.77591973244148
2022-11-17T16:04:52.657Z,202.16053511705687
2022-11-17T16:11:38.519Z,198.0133779264214
2022-11-17T16:18:06.811Z,207.57859531772576
2022-11-17T16:24:40.649Z,229.29765886287626
2022-11-17T16:31:07.926Z,222.29765886287626
2022-11-17T16:37:37.245Z,212.3913043478261
2022-11-17T16:44:04.604Z,219.4247491638796
2022-11-17T16:52:59.736Z,224.5685618729097
2022-11-17T17:01:02.199Z,231.64548494983276
2022-11-17T17:08:06.913Z,230.752508361204
2022-11-17T17:14:34.607Z,228.03010033444815
2022-11-17T17:23:09.228Z,241.0401337792642
2022-11-17T17:33:53.011Z,262.10033444816054
2022-11-17T17:44:06.589Z,256.59866220735785
2022-11-17T17:55:53.626Z,288.04013377926424
2022-11-17T18:02:20.248Z,291.4849498327759
2022-11-17T18:09:24.951Z,282.7056856187291
2022-11-17T18:15:52.064Z,261.685618729097
2022-11-17T18:22:20.474Z,293.5953177257525
2022-11-17T18:29:02.961Z,288.5652173913044
2022-11-17T18:35:33.488Z,290.2140468227425
2022-11-17T18:42:42.742Z,274.11036789297657
2022-11-17T18:49:14.717Z,287.7725752508361
2022-11-17T18:55:46.805Z,273.7123745819398
2022-11-17T19:08:19.962Z,273.3612040133779
2022-11-17T19:14:51.243Z,294.7859531772575
2022-11-17T19:21:22.054Z,304.6588628762542
2022-11-17T19:33:56.892Z,302.55183946488296
2022-11-17T19:43:33.091Z,312.4983277591973
2022-11-17T19:52:00.337Z,300.39464882943145
2022-11-17T20:00:59.558Z,289.39130434782606
2022-11-17T20:07:36.043Z,287.15384615384613
2022-11-17T20:14:16.122Z,292.685618729097
2022-11-17T20:20:56.493Z,282.2173913043478
2022-11-17T20:27:53.852Z,300.2173913043478
2022-11-17T20:40:22.995Z,308.05016722408027
2022-11-17T20:47:08.285Z,289.7826086956522
2022-11-17T20:56:20.530Z,310.83946488294316
2022-11-17T21:10:31.263Z,308.6454849498328
2022-11-17T21:17:01.362Z,283.94983277591973
2022-11-17T21:26:02.840Z,278.0066889632107
2022-11-17T21:32:53.004Z,267.82274247491637
2022-11-17T21:39:25.819Z,286.9732441471572
2022-11-17T21:45:58.193Z,286.6354515050167
2022-11-17T21:52:31.507Z,312.0267558528428
2022-11-17T21:59:04.891Z,288.25752508361205
2022-11-17T22:05:36.788Z,306.27759197324417
2022-11-17T22:12:08.271Z,330.32775919732444
2022-11-17T22:19:20.132Z,314.96989966555185
2022-11-17T22:26:04.263Z,325.2341137123746
2022-11-17T22:41:26.397Z,360.01672240802674
2022-11-17T22:48:02.737Z,370.3411371237458
2022-11-17T22:54:43.579Z,377.33779264214047
2022-11-17T23:01:18.835Z,418.0066889632107
2022-11-17T23:08:08.209Z,419.04347826086956
2022-11-17T23:14:40.607Z,428.5418060200669
2022-11-17T23:21:09.861Z,452.66220735785953
2022-11-17T23:27:44.688Z,432.5551839464883
2022-11-17T23:34:12.297Z,438.1371237458194
2022-11-17T23:40:42.298Z,446.1371237458194
2022-11-17T23:47:22.421Z,471.7658862876254
2022-11-17T23:53:53.544Z,465.66220735785953
